Terminal Aerodrome Forecast
Issued by NWS Sterling, VA

Current Version | Previous Version | Graphics & Text | Print | Product List | Glossary On
Versions: 1 2 3 4 5 6 7 8 9 10 11 12 13 14 15 16 17 18
000
FTUS41 KLWX 281135
TAFMRB
TAF
KMRB 281135Z 2812/2912 32012KT P6SM SCT040 BKN090
     FM281600 33014G25KT P6SM BKN060
     FM282200 32013KT P6SM SCT060
     FM290000 32009KT P6SM SCT110=

USA.gov is the U.S. government's official web portal to all federal, state and local government web resources and services.